CheckWX is a tool to help pilots better visualize weather data.  It is not intended as a substitute for an official pre-flight weather briefing.

20:34:32 UTC

KPPO METAR
La Porte Municipal Airport
La Porte, Indiana, USA
Current

20 mins ago

KPPO 182015Z AUTO 36010KT 10SM CLR M02/M07 A3036 RMK AO2 T10171075
Observed
Feb-18 @ 20:15 UTC
Wind
  • 360° at 10 KTS
Visibility
10 SM
Flight Rules
VFR
Cloud Levels
  • Clear skies
Temperature
-2°C / 28°F
Dewpoint
-8°C / 18°F
Humidity
64%
Altimeter
30.36" Hg
Pressure
1028.12 hPa
Previous

40 mins ago

KPPO 181955Z AUTO 01009G14KT 10SM SCT034 M02/M08 A3036 RMK AO2 T10201079
Observed
Feb-18 @ 19:55 UTC
Wind
  • 010° at 9 KTS
  • Gusting to 14 KTS
Visibility
10 SM
Flight Rules
VFR
Cloud Levels
  • Scattered at 3,400' AGL
Temperature
-2°C / 28°F
Dewpoint
-8°C / 18°F
Humidity
64%
Altimeter
30.36" Hg
Pressure
1028.12 hPa
Previous

60 mins ago

KPPO 181935Z AUTO 33010KT 10SM SCT034 M02/M07 A3035 RMK AO2 T10161073
Observed
Feb-18 @ 19:35 UTC
Wind
  • 330° at 10 KTS
Visibility
10 SM
Flight Rules
VFR
Cloud Levels
  • Scattered at 3,400' AGL
Temperature
-2°C / 28°F
Dewpoint
-7°C / 19°F
Humidity
69%
Altimeter
30.35" Hg
Pressure
1027.82 hPa